sensor_id;sensor_type;location;lat;lon;timestamp;P1;durP1;ratioP1;P2;durP2;ratioP2
73697;SDS011;62004;42.566;23.164;2023-06-22T00:01:53;4.93;;;4.43;;
73697;SDS011;62004;42.566;23.164;2023-06-22T00:04:18;5.20;;;4.43;;
73697;SDS011;62004;42.566;23.164;2023-06-22T00:06:44;5.13;;;4.40;;
73697;SDS011;62004;42.566;23.164;2023-06-22T00:09:09;4.67;;;4.17;;
73697;SDS011;62004;42.566;23.164;2023-06-22T00:11:35;5.00;;;4.50;;
73697;SDS011;62004;42.566;23.164;2023-06-22T00:14:01;5.05;;;4.55;;
73697;SDS011;62004;42.566;23.164;2023-06-22T00:16:26;5.37;;;4.83;;
73697;SDS011;62004;42.566;23.164;2023-06-22T00:18:51;5.30;;;4.80;;
73697;SDS011;62004;42.566;23.164;2023-06-22T00:21:16;9.30;;;4.80;;
73697;SDS011;62004;42.566;23.164;2023-06-22T00:23:42;5.07;;;4.57;;
73697;SDS011;62004;42.566;23.164;2023-06-22T00:26:08;5.50;;;4.57;;
73697;SDS011;62004;42.566;23.164;2023-06-22T00:28:33;5.25;;;4.30;;
73697;SDS011;62004;42.566;23.164;2023-06-22T00:30:59;5.25;;;4.40;;
73697;SDS011;62004;42.566;23.164;2023-06-22T00:33:25;5.45;;;4.95;;
73697;SDS011;62004;42.566;23.164;2023-06-22T00:35:50;4.80;;;4.35;;
73697;SDS011;62004;42.566;23.164;2023-06-22T00:38:17;6.68;;;5.05;;
73697;SDS011;62004;42.566;23.164;2023-06-22T00:40:42;5.43;;;4.67;;
73697;SDS011;62004;42.566;23.164;2023-06-22T00:43:08;5.40;;;4.30;;
73697;SDS011;62004;42.566;23.164;2023-06-22T00:45:33;5.80;;;4.43;;
73697;SDS011;62004;42.566;23.164;2023-06-22T00:47:59;5.00;;;4.50;;
73697;SDS011;62004;42.566;23.164;2023-06-22T00:50:28;5.88;;;4.28;;
73697;SDS011;62004;42.566;23.164;2023-06-22T00:52:58;6.15;;;5.10;;
73697;SDS011;62004;42.566;23.164;2023-06-22T00:55:24;5.53;;;5.00;;
73697;SDS011;62004;42.566;23.164;2023-06-22T00:57:51;5.50;;;4.95;;
73697;SDS011;62004;42.566;23.164;2023-06-22T01:00:21;6.15;;;4.75;;
73697;SDS011;62004;42.566;23.164;2023-06-22T01:02:49;5.55;;;4.38;;
73697;SDS011;62004;42.566;23.164;2023-06-22T01:05:17;6.05;;;4.88;;
73697;SDS011;62004;42.566;23.164;2023-06-22T01:12:45;7.10;;;5.25;;
73697;SDS011;62004;42.566;23.164;2023-06-22T01:15:23;5.65;;;5.05;;
73697;SDS011;62004;42.566;23.164;2023-06-22T01:17:50;6.53;;;5.28;;
73697;SDS011;62004;42.566;23.164;2023-06-22T01:20:17;6.15;;;5.07;;
73697;SDS011;62004;42.566;23.164;2023-06-22T01:22:49;5.70;;;5.10;;
73697;SDS011;62004;42.566;23.164;2023-06-22T01:25:21;6.90;;;5.88;;
73697;SDS011;62004;42.566;23.164;2023-06-22T01:27:56;7.63;;;5.72;;
73697;SDS011;62004;42.566;23.164;2023-06-22T01:30:25;6.72;;;5.53;;
73697;SDS011;62004;42.566;23.164;2023-06-22T01:32:53;6.32;;;5.70;;
73697;SDS011;62004;42.566;23.164;2023-06-22T01:35:20;6.28;;;5.53;;
73697;SDS011;62004;42.566;23.164;2023-06-22T01:37:46;8.20;;;5.80;;
73697;SDS011;62004;42.566;23.164;2023-06-22T01:40:12;6.70;;;5.95;;
73697;SDS011;62004;42.566;23.164;2023-06-22T01:42:37;6.75;;;5.68;;
73697;SDS011;62004;42.566;23.164;2023-06-22T01:45:03;6.20;;;5.57;;
73697;SDS011;62004;42.566;23.164;2023-06-22T01:47:28;7.18;;;5.38;;
73697;SDS011;62004;42.566;23.164;2023-06-22T01:49:54;7.63;;;6.65;;
73697;SDS011;62004;42.566;23.164;2023-06-22T01:52:19;7.55;;;6.45;;
73697;SDS011;62004;42.566;23.164;2023-06-22T01:54:46;8.85;;;6.30;;
73697;SDS011;62004;42.566;23.164;2023-06-22T01:57:11;9.23;;;6.53;;
73697;SDS011;62004;42.566;23.164;2023-06-22T01:59:37;8.50;;;6.88;;
73697;SDS011;62004;42.566;23.164;2023-06-22T02:02:06;7.75;;;6.18;;
73697;SDS011;62004;42.566;23.164;2023-06-22T02:04:44;8.18;;;7.20;;
73697;SDS011;62004;42.566;23.164;2023-06-22T02:07:12;7.75;;;6.45;;
73697;SDS011;62004;42.566;23.164;2023-06-22T02:09:38;8.02;;;6.85;;
73697;SDS011;62004;42.566;23.164;2023-06-22T02:12:07;9.93;;;7.35;;
73697;SDS011;62004;42.566;23.164;2023-06-22T02:14:32;7.63;;;6.78;;
73697;SDS011;62004;42.566;23.164;2023-06-22T02:16:59;7.95;;;7.15;;
73697;SDS011;62004;42.566;23.164;2023-06-22T02:19:24;9.00;;;7.53;;
73697;SDS011;62004;42.566;23.164;2023-06-22T02:21:50;8.70;;;7.20;;
73697;SDS011;62004;42.566;23.164;2023-06-22T02:24:15;8.40;;;7.50;;
73697;SDS011;62004;42.566;23.164;2023-06-22T02:26:41;9.50;;;8.07;;
73697;SDS011;62004;42.566;23.164;2023-06-22T02:29:07;8.60;;;7.32;;
73697;SDS011;62004;42.566;23.164;2023-06-22T02:31:32;8.38;;;7.13;;
73697;SDS011;62004;42.566;23.164;2023-06-22T02:33:58;8.27;;;7.37;;
73697;SDS011;62004;42.566;23.164;2023-06-22T02:36:23;8.18;;;7.03;;
73697;SDS011;62004;42.566;23.164;2023-06-22T02:38:50;9.25;;;7.30;;
73697;SDS011;62004;42.566;23.164;2023-06-22T02:41:15;7.55;;;6.60;;
73697;SDS011;62004;42.566;23.164;2023-06-22T02:43:47;7.82;;;7.03;;
73697;SDS011;62004;42.566;23.164;2023-06-22T02:46:12;8.23;;;7.30;;
73697;SDS011;62004;42.566;23.164;2023-06-22T02:48:38;8.20;;;7.30;;
73697;SDS011;62004;42.566;23.164;2023-06-22T02:51:03;7.90;;;7.10;;
73697;SDS011;62004;42.566;23.164;2023-06-22T02:53:29;8.47;;;7.57;;
73697;SDS011;62004;42.566;23.164;2023-06-22T02:55:55;8.60;;;7.53;;
73697;SDS011;62004;42.566;23.164;2023-06-22T02:58:20;8.77;;;7.45;;
73697;SDS011;62004;42.566;23.164;2023-06-22T03:00:46;8.10;;;6.78;;
73697;SDS011;62004;42.566;23.164;2023-06-22T03:03:11;8.90;;;7.37;;
73697;SDS011;62004;42.566;23.164;2023-06-22T03:05:36;8.77;;;7.77;;
73697;SDS011;62004;42.566;23.164;2023-06-22T03:08:02;9.20;;;6.83;;
73697;SDS011;62004;42.566;23.164;2023-06-22T03:10:27;9.15;;;7.40;;
73697;SDS011;62004;42.566;23.164;2023-06-22T03:12:52;8.20;;;7.03;;
73697;SDS011;62004;42.566;23.164;2023-06-22T03:15:17;8.60;;;7.40;;
73697;SDS011;62004;42.566;23.164;2023-06-22T03:17:43;8.33;;;7.43;;
73697;SDS011;62004;42.566;23.164;2023-06-22T03:20:09;8.82;;;7.25;;
73697;SDS011;62004;42.566;23.164;2023-06-22T03:22:38;9.48;;;7.65;;
73697;SDS011;62004;42.566;23.164;2023-06-22T03:25:04;8.18;;;6.43;;
73697;SDS011;62004;42.566;23.164;2023-06-22T03:27:34;7.70;;;6.90;;
73697;SDS011;62004;42.566;23.164;2023-06-22T03:30:00;8.30;;;6.80;;
73697;SDS011;62004;42.566;23.164;2023-06-22T03:32:25;8.93;;;7.83;;
73697;SDS011;62004;42.566;23.164;2023-06-22T03:34:52;8.05;;;7.10;;
73697;SDS011;62004;42.566;23.164;2023-06-22T03:37:18;8.43;;;7.40;;
73697;SDS011;62004;42.566;23.164;2023-06-22T03:39:43;9.97;;;6.93;;
73697;SDS011;62004;42.566;23.164;2023-06-22T03:42:08;8.93;;;8.03;;
73697;SDS011;62004;42.566;23.164;2023-06-22T03:44:34;8.83;;;7.40;;
73697;SDS011;62004;42.566;23.164;2023-06-22T03:47:01;9.10;;;7.45;;
73697;SDS011;62004;42.566;23.164;2023-06-22T03:49:27;8.48;;;7.50;;
73697;SDS011;62004;42.566;23.164;2023-06-22T03:51:52;8.17;;;7.10;;
73697;SDS011;62004;42.566;23.164;2023-06-22T03:54:17;8.43;;;7.53;;
73697;SDS011;62004;42.566;23.164;2023-06-22T03:56:42;7.17;;;6.47;;
73697;SDS011;62004;42.566;23.164;2023-06-22T03:59:08;8.53;;;6.33;;
73697;SDS011;62004;42.566;23.164;2023-06-22T04:01:33;9.37;;;6.67;;
73697;SDS011;62004;42.566;23.164;2023-06-22T04:03:58;8.50;;;7.00;;
73697;SDS011;62004;42.566;23.164;2023-06-22T04:06:23;8.30;;;7.50;;
73697;SDS011;62004;42.566;23.164;2023-06-22T04:08:49;9.10;;;7.77;;
73697;SDS011;62004;42.566;23.164;2023-06-22T04:11:16;8.80;;;7.40;;
73697;SDS011;62004;42.566;23.164;2023-06-22T04:13:41;9.93;;;8.05;;
73697;SDS011;62004;42.566;23.164;2023-06-22T04:16:06;8.87;;;7.97;;
73697;SDS011;62004;42.566;23.164;2023-06-22T04:18:32;10.27;;;8.63;;
73697;SDS011;62004;42.566;23.164;2023-06-22T04:20:57;8.80;;;7.97;;
73697;SDS011;62004;42.566;23.164;2023-06-22T04:23:22;11.20;;;8.47;;
73697;SDS011;62004;42.566;23.164;2023-06-22T04:25:47;10.13;;;9.07;;
73697;SDS011;62004;42.566;23.164;2023-06-22T04:28:13;9.77;;;8.87;;
73697;SDS011;62004;42.566;23.164;2023-06-22T04:30:38;9.83;;;9.03;;
73697;SDS011;62004;42.566;23.164;2023-06-22T04:33:11;8.75;;;8.05;;
73697;SDS011;62004;42.566;23.164;2023-06-22T04:35:36;8.57;;;7.93;;
73697;SDS011;62004;42.566;23.164;2023-06-22T04:38:02;7.63;;;7.03;;
73697;SDS011;62004;42.566;23.164;2023-06-22T04:40:28;7.10;;;6.53;;
73697;SDS011;62004;42.566;23.164;2023-06-22T04:42:53;7.87;;;7.17;;
73697;SDS011;62004;42.566;23.164;2023-06-22T04:45:19;6.33;;;5.23;;
73697;SDS011;62004;42.566;23.164;2023-06-22T04:47:44;5.35;;;4.90;;
73697;SDS011;62004;42.566;23.164;2023-06-22T04:50:13;6.93;;;6.22;;
73697;SDS011;62004;42.566;23.164;2023-06-22T04:52:39;21.45;;;19.88;;
73697;SDS011;62004;42.566;23.164;2023-06-22T04:55:04;7.07;;;6.57;;
73697;SDS011;62004;42.566;23.164;2023-06-22T04:57:29;8.23;;;7.63;;
73697;SDS011;62004;42.566;23.164;2023-06-22T04:59:59;10.23;;;8.90;;
73697;SDS011;62004;42.566;23.164;2023-06-22T05:02:36;8.45;;;7.65;;
73697;SDS011;62004;42.566;23.164;2023-06-22T05:05:02;15.20;;;14.05;;
73697;SDS011;62004;42.566;23.164;2023-06-22T05:07:31;8.90;;;8.20;;
73697;SDS011;62004;42.566;23.164;2023-06-22T05:09:57;6.80;;;6.28;;
73697;SDS011;62004;42.566;23.164;2023-06-22T05:12:22;7.53;;;6.90;;
73697;SDS011;62004;42.566;23.164;2023-06-22T05:14:47;7.77;;;7.03;;
73697;SDS011;62004;42.566;23.164;2023-06-22T05:17:12;8.40;;;7.67;;
73697;SDS011;62004;42.566;23.164;2023-06-22T05:19:38;7.45;;;6.85;;
73697;SDS011;62004;42.566;23.164;2023-06-22T05:22:04;8.35;;;6.55;;
73697;SDS011;62004;42.566;23.164;2023-06-22T05:24:31;7.63;;;6.70;;
73697;SDS011;62004;42.566;23.164;2023-06-22T05:26:56;7.40;;;6.75;;
73697;SDS011;62004;42.566;23.164;2023-06-22T05:29:22;9.48;;;6.60;;
73697;SDS011;62004;42.566;23.164;2023-06-22T05:31:48;83.72;;;22.23;;
73697;SDS011;62004;42.566;23.164;2023-06-22T05:34:13;8.82;;;8.13;;
73697;SDS011;62004;42.566;23.164;2023-06-22T05:36:38;7.95;;;7.25;;
73697;SDS011;62004;42.566;23.164;2023-06-22T05:39:13;7.20;;;6.60;;
73697;SDS011;62004;42.566;23.164;2023-06-22T05:41:38;7.28;;;6.80;;
73697;SDS011;62004;42.566;23.164;2023-06-22T05:44:04;7.60;;;7.00;;
73697;SDS011;62004;42.566;23.164;2023-06-22T05:46:29;8.20;;;7.53;;
73697;SDS011;62004;42.566;23.164;2023-06-22T05:48:54;8.00;;;7.07;;
73697;SDS011;62004;42.566;23.164;2023-06-22T05:51:19;10.57;;;7.10;;
73697;SDS011;62004;42.566;23.164;2023-06-22T05:53:45;8.82;;;8.02;;
73697;SDS011;62004;42.566;23.164;2023-06-22T05:56:14;8.85;;;7.97;;
73697;SDS011;62004;42.566;23.164;2023-06-22T05:58:39;9.20;;;8.60;;
73697;SDS011;62004;42.566;23.164;2023-06-22T06:01:04;8.10;;;7.50;;
73697;SDS011;62004;42.566;23.164;2023-06-22T06:03:30;8.87;;;8.03;;
73697;SDS011;62004;42.566;23.164;2023-06-22T06:05:55;8.97;;;8.03;;
73697;SDS011;62004;42.566;23.164;2023-06-22T06:08:20;9.60;;;8.85;;
73697;SDS011;62004;42.566;23.164;2023-06-22T06:10:46;8.98;;;7.70;;
73697;SDS011;62004;42.566;23.164;2023-06-22T06:13:11;8.25;;;7.55;;
73697;SDS011;62004;42.566;23.164;2023-06-22T06:15:37;10.82;;;7.00;;
73697;SDS011;62004;42.566;23.164;2023-06-22T06:18:02;9.30;;;6.77;;
73697;SDS011;62004;42.566;23.164;2023-06-22T06:20:30;7.05;;;6.43;;
73697;SDS011;62004;42.566;23.164;2023-06-22T06:22:56;7.15;;;6.05;;
73697;SDS011;62004;42.566;23.164;2023-06-22T06:25:21;6.70;;;6.20;;
73697;SDS011;62004;42.566;23.164;2023-06-22T06:27:47;9.77;;;6.95;;
73697;SDS011;62004;42.566;23.164;2023-06-22T06:30:13;6.95;;;5.82;;
73697;SDS011;62004;42.566;23.164;2023-06-22T06:32:39;6.35;;;5.82;;
73697;SDS011;62004;42.566;23.164;2023-06-22T06:35:08;7.07;;;6.38;;
73697;SDS011;62004;42.566;23.164;2023-06-22T06:37:35;5.57;;;5.18;;
73697;SDS011;62004;42.566;23.164;2023-06-22T06:40:01;6.63;;;5.68;;
73697;SDS011;62004;42.566;23.164;2023-06-22T06:42:26;6.07;;;5.37;;
73697;SDS011;62004;42.566;23.164;2023-06-22T06:44:51;5.57;;;5.20;;
73697;SDS011;62004;42.566;23.164;2023-06-22T06:47:16;5.68;;;5.15;;
73697;SDS011;62004;42.566;23.164;2023-06-22T06:49:42;5.97;;;5.47;;
73697;SDS011;62004;42.566;23.164;2023-06-22T06:52:07;5.85;;;5.35;;
73697;SDS011;62004;42.566;23.164;2023-06-22T06:54:33;6.03;;;5.55;;
73697;SDS011;62004;42.566;23.164;2023-06-22T06:56:58;6.43;;;5.93;;
73697;SDS011;62004;42.566;23.164;2023-06-22T06:59:23;6.33;;;5.47;;
73697;SDS011;62004;42.566;23.164;2023-06-22T07:01:48;6.30;;;5.57;;
73697;SDS011;62004;42.566;23.164;2023-06-22T07:04:14;7.15;;;6.45;;
73697;SDS011;62004;42.566;23.164;2023-06-22T07:06:39;12.50;;;6.80;;
73697;SDS011;62004;42.566;23.164;2023-06-22T07:09:04;10.98;;;8.05;;
73697;SDS011;62004;42.566;23.164;2023-06-22T07:11:29;19.97;;;9.07;;
73697;SDS011;62004;42.566;23.164;2023-06-22T07:13:55;11.38;;;8.55;;
73697;SDS011;62004;42.566;23.164;2023-06-22T07:16:20;16.35;;;10.18;;
73697;SDS011;62004;42.566;23.164;2023-06-22T07:18:46;15.18;;;8.38;;
73697;SDS011;62004;42.566;23.164;2023-06-22T07:21:11;12.10;;;8.43;;
73697;SDS011;62004;42.566;23.164;2023-06-22T07:23:36;13.37;;;9.10;;
73697;SDS011;62004;42.566;23.164;2023-06-22T07:26:01;14.80;;;10.67;;
73697;SDS011;62004;42.566;23.164;2023-06-22T07:28:27;13.05;;;8.73;;
73697;SDS011;62004;42.566;23.164;2023-06-22T07:30:52;15.93;;;12.20;;
73697;SDS011;62004;42.566;23.164;2023-06-22T07:33:17;17.43;;;11.83;;
73697;SDS011;62004;42.566;23.164;2023-06-22T07:35:43;13.33;;;8.53;;
73697;SDS011;62004;42.566;23.164;2023-06-22T07:38:09;15.82;;;12.00;;
73697;SDS011;62004;42.566;23.164;2023-06-22T07:40:34;16.70;;;10.35;;
73697;SDS011;62004;42.566;23.164;2023-06-22T07:43:00;13.27;;;10.63;;
73697;SDS011;62004;42.566;23.164;2023-06-22T07:45:25;16.85;;;9.88;;
73697;SDS011;62004;42.566;23.164;2023-06-22T07:47:50;15.47;;;11.00;;
73697;SDS011;62004;42.566;23.164;2023-06-22T07:50:16;18.50;;;11.30;;
73697;SDS011;62004;42.566;23.164;2023-06-22T07:52:41;18.30;;;10.27;;
73697;SDS011;62004;42.566;23.164;2023-06-22T07:55:06;17.63;;;12.27;;
73697;SDS011;62004;42.566;23.164;2023-06-22T07:57:32;19.00;;;10.93;;
73697;SDS011;62004;42.566;23.164;2023-06-22T07:59:59;20.40;;;10.02;;
73697;SDS011;62004;42.566;23.164;2023-06-22T08:02:25;14.48;;;8.73;;
73697;SDS011;62004;42.566;23.164;2023-06-22T08:04:50;15.85;;;9.68;;
73697;SDS011;62004;42.566;23.164;2023-06-22T08:07:15;19.83;;;10.87;;
73697;SDS011;62004;42.566;23.164;2023-06-22T08:09:42;13.48;;;8.95;;
73697;SDS011;62004;42.566;23.164;2023-06-22T08:12:10;11.80;;;8.88;;
73697;SDS011;62004;42.566;23.164;2023-06-22T08:14:37;16.88;;;11.00;;
73697;SDS011;62004;42.566;23.164;2023-06-22T08:17:02;14.70;;;9.02;;
73697;SDS011;62004;42.566;23.164;2023-06-22T08:19:28;14.73;;;10.07;;
73697;SDS011;62004;42.566;23.164;2023-06-22T08:21:53;14.20;;;9.43;;
73697;SDS011;62004;42.566;23.164;2023-06-22T08:24:18;18.07;;;10.00;;
73697;SDS011;62004;42.566;23.164;2023-06-22T08:26:43;15.85;;;9.50;;
73697;SDS011;62004;42.566;23.164;2023-06-22T08:29:09;15.70;;;9.83;;
73697;SDS011;62004;42.566;23.164;2023-06-22T08:31:34;11.90;;;9.43;;
73697;SDS011;62004;42.566;23.164;2023-06-22T08:33:59;16.80;;;9.95;;
73697;SDS011;62004;42.566;23.164;2023-06-22T08:36:25;16.63;;;10.55;;
73697;SDS011;62004;42.566;23.164;2023-06-22T08:38:50;15.23;;;9.83;;
73697;SDS011;62004;42.566;23.164;2023-06-22T08:41:16;19.52;;;10.23;;
73697;SDS011;62004;42.566;23.164;2023-06-22T08:43:42;11.23;;;8.05;;
73697;SDS011;62004;42.566;23.164;2023-06-22T08:46:09;12.57;;;8.65;;
73697;SDS011;62004;42.566;23.164;2023-06-22T08:48:34;11.03;;;8.80;;
73697;SDS011;62004;42.566;23.164;2023-06-22T08:50:59;13.13;;;9.13;;
73697;SDS011;62004;42.566;23.164;2023-06-22T08:53:24;9.53;;;8.63;;
73697;SDS011;62004;42.566;23.164;2023-06-22T08:55:50;10.17;;;8.53;;
73697;SDS011;62004;42.566;23.164;2023-06-22T08:58:15;9.85;;;8.90;;
73697;SDS011;62004;42.566;23.164;2023-06-22T09:00:41;9.63;;;8.45;;
73697;SDS011;62004;42.566;23.164;2023-06-22T09:03:06;9.20;;;8.33;;
73697;SDS011;62004;42.566;23.164;2023-06-22T09:05:31;9.77;;;8.67;;
73697;SDS011;62004;42.566;23.164;2023-06-22T09:07:57;10.38;;;9.38;;
73697;SDS011;62004;42.566;23.164;2023-06-22T09:10:23;9.48;;;8.57;;
73697;SDS011;62004;42.566;23.164;2023-06-22T09:12:49;10.70;;;9.57;;
73697;SDS011;62004;42.566;23.164;2023-06-22T09:15:14;10.18;;;9.18;;
73697;SDS011;62004;42.566;23.164;2023-06-22T09:17:40;12.15;;;9.65;;
73697;SDS011;62004;42.566;23.164;2023-06-22T09:20:05;10.82;;;9.05;;
73697;SDS011;62004;42.566;23.164;2023-06-22T09:22:32;11.70;;;9.32;;
73697;SDS011;62004;42.566;23.164;2023-06-22T09:24:58;13.07;;;9.00;;
73697;SDS011;62004;42.566;23.164;2023-06-22T09:27:24;10.20;;;8.98;;
73697;SDS011;62004;42.566;23.164;2023-06-22T09:29:50;10.73;;;9.40;;
73697;SDS011;62004;42.566;23.164;2023-06-22T09:32:15;12.40;;;8.27;;
73697;SDS011;62004;42.566;23.164;2023-06-22T09:34:40;10.00;;;8.93;;
73697;SDS011;62004;42.566;23.164;2023-06-22T09:37:06;10.10;;;7.80;;
73697;SDS011;62004;42.566;23.164;2023-06-22T09:39:31;16.55;;;14.95;;
73697;SDS011;62004;42.566;23.164;2023-06-22T09:41:59;23.87;;;21.47;;
73697;SDS011;62004;42.566;23.164;2023-06-22T09:44:25;28.08;;;25.48;;
73697;SDS011;62004;42.566;23.164;2023-06-22T09:46:50;60.70;;;55.17;;
73697;SDS011;62004;42.566;23.164;2023-06-22T09:49:15;92.85;;;85.07;;
73697;SDS011;62004;42.566;23.164;2023-06-22T09:51:41;85.93;;;78.57;;
73697;SDS011;62004;42.566;23.164;2023-06-22T09:54:06;70.50;;;64.33;;
73697;SDS011;62004;42.566;23.164;2023-06-22T09:56:31;101.37;;;92.63;;
73697;SDS011;62004;42.566;23.164;2023-06-22T09:58:56;77.90;;;71.20;;
73697;SDS011;62004;42.566;23.164;2023-06-22T10:01:22;110.43;;;100.80;;
73697;SDS011;62004;42.566;23.164;2023-06-22T10:03:47;60.90;;;55.47;;
73697;SDS011;62004;42.566;23.164;2023-06-22T10:06:13;65.10;;;59.43;;
73697;SDS011;62004;42.566;23.164;2023-06-22T10:08:38;41.43;;;37.77;;
73697;SDS011;62004;42.566;23.164;2023-06-22T10:11:04;65.68;;;59.75;;
73697;SDS011;62004;42.566;23.164;2023-06-22T10:13:29;49.90;;;45.42;;
73697;SDS011;62004;42.566;23.164;2023-06-22T10:15:54;43.25;;;39.45;;
73697;SDS011;62004;42.566;23.164;2023-06-22T10:18:20;32.20;;;29.43;;
73697;SDS011;62004;42.566;23.164;2023-06-22T10:20:47;32.50;;;29.45;;
73697;SDS011;62004;42.566;23.164;2023-06-22T10:23:12;24.45;;;22.10;;
73697;SDS011;62004;42.566;23.164;2023-06-22T10:25:37;29.67;;;26.92;;
73697;SDS011;62004;42.566;23.164;2023-06-22T10:28:03;25.90;;;23.35;;
73697;SDS011;62004;42.566;23.164;2023-06-22T10:30:28;21.95;;;19.85;;
73697;SDS011;62004;42.566;23.164;2023-06-22T10:32:54;30.10;;;27.10;;
73697;SDS011;62004;42.566;23.164;2023-06-22T10:35:19;26.27;;;23.77;;
73697;SDS011;62004;42.566;23.164;2023-06-22T10:37:44;33.43;;;30.13;;
73697;SDS011;62004;42.566;23.164;2023-06-22T10:40:13;19.83;;;17.70;;
73697;SDS011;62004;42.566;23.164;2023-06-22T10:42:39;19.88;;;17.48;;
73697;SDS011;62004;42.566;23.164;2023-06-22T10:45:05;28.13;;;23.88;;
73697;SDS011;62004;42.566;23.164;2023-06-22T10:47:30;19.77;;;17.63;;
73697;SDS011;62004;42.566;23.164;2023-06-22T10:49:56;22.03;;;19.77;;
73697;SDS011;62004;42.566;23.164;2023-06-22T10:52:21;19.07;;;17.27;;
73697;SDS011;62004;42.566;23.164;2023-06-22T10:54:46;18.20;;;16.30;;
73697;SDS011;62004;42.566;23.164;2023-06-22T10:57:11;10.43;;;9.43;;
73697;SDS011;62004;42.566;23.164;2023-06-22T10:59:37;10.53;;;9.30;;
73697;SDS011;62004;42.566;23.164;2023-06-22T11:02:02;11.40;;;10.35;;
73697;SDS011;62004;42.566;23.164;2023-06-22T11:04:27;15.43;;;13.90;;
73697;SDS011;62004;42.566;23.164;2023-06-22T11:06:52;10.80;;;9.70;;
73697;SDS011;62004;42.566;23.164;2023-06-22T11:09:18;11.77;;;10.47;;
73697;SDS011;62004;42.566;23.164;2023-06-22T11:11:46;12.45;;;10.60;;
73697;SDS011;62004;42.566;23.164;2023-06-22T11:14:11;11.48;;;8.10;;
73697;SDS011;62004;42.566;23.164;2023-06-22T11:16:36;8.53;;;7.73;;
73697;SDS011;62004;42.566;23.164;2023-06-22T11:19:01;7.57;;;6.87;;
73697;SDS011;62004;42.566;23.164;2023-06-22T11:21:28;10.13;;;8.57;;
73697;SDS011;62004;42.566;23.164;2023-06-22T11:23:53;8.77;;;7.88;;
73697;SDS011;62004;42.566;23.164;2023-06-22T11:26:18;8.80;;;6.90;;
73697;SDS011;62004;42.566;23.164;2023-06-22T11:28:44;6.87;;;6.17;;
73697;SDS011;62004;42.566;23.164;2023-06-22T11:31:09;7.43;;;6.73;;
73697;SDS011;62004;42.566;23.164;2023-06-22T11:33:34;7.60;;;6.80;;
73697;SDS011;62004;42.566;23.164;2023-06-22T11:35:59;7.57;;;6.88;;
73697;SDS011;62004;42.566;23.164;2023-06-22T11:38:25;6.87;;;6.20;;
73697;SDS011;62004;42.566;23.164;2023-06-22T11:40:50;6.45;;;5.85;;
73697;SDS011;62004;42.566;23.164;2023-06-22T11:43:15;7.23;;;6.57;;
73697;SDS011;62004;42.566;23.164;2023-06-22T11:45:41;7.43;;;6.60;;
73697;SDS011;62004;42.566;23.164;2023-06-22T11:48:06;6.87;;;6.27;;
73697;SDS011;62004;42.566;23.164;2023-06-22T11:50:31;7.93;;;7.03;;
73697;SDS011;62004;42.566;23.164;2023-06-22T11:53:00;7.20;;;6.30;;
73697;SDS011;62004;42.566;23.164;2023-06-22T11:55:26;8.40;;;5.50;;
73697;SDS011;62004;42.566;23.164;2023-06-22T11:57:53;6.87;;;6.17;;
73697;SDS011;62004;42.566;23.164;2023-06-22T12:00:18;7.35;;;6.65;;
73697;SDS011;62004;42.566;23.164;2023-06-22T12:02:44;7.03;;;6.07;;
73697;SDS011;62004;42.566;23.164;2023-06-22T12:05:12;9.70;;;6.22;;
73697;SDS011;62004;42.566;23.164;2023-06-22T12:07:37;7.50;;;6.23;;
73697;SDS011;62004;42.566;23.164;2023-06-22T12:10:03;11.60;;;9.10;;
73697;SDS011;62004;42.566;23.164;2023-06-22T12:12:28;6.68;;;6.07;;
73697;SDS011;62004;42.566;23.164;2023-06-22T12:14:53;9.40;;;7.63;;
73697;SDS011;62004;42.566;23.164;2023-06-22T12:17:18;7.93;;;7.13;;
73697;SDS011;62004;42.566;23.164;2023-06-22T12:19:44;12.20;;;7.57;;
73697;SDS011;62004;42.566;23.164;2023-06-22T12:22:09;8.87;;;6.97;;
73697;SDS011;62004;42.566;23.164;2023-06-22T12:24:34;11.73;;;9.13;;
73697;SDS011;62004;42.566;23.164;2023-06-22T12:26:59;10.00;;;8.60;;
73697;SDS011;62004;42.566;23.164;2023-06-22T12:29:24;9.60;;;8.27;;
73697;SDS011;62004;42.566;23.164;2023-06-22T12:31:50;8.67;;;6.93;;
73697;SDS011;62004;42.566;23.164;2023-06-22T12:34:15;8.57;;;7.00;;
73697;SDS011;62004;42.566;23.164;2023-06-22T12:36:40;7.93;;;7.17;;
73697;SDS011;62004;42.566;23.164;2023-06-22T12:39:05;8.93;;;5.93;;
73697;SDS011;62004;42.566;23.164;2023-06-22T12:41:31;6.88;;;5.55;;
73697;SDS011;62004;42.566;23.164;2023-06-22T12:43:56;6.17;;;5.33;;
73697;SDS011;62004;42.566;23.164;2023-06-22T12:46:21;8.40;;;5.47;;
73697;SDS011;62004;42.566;23.164;2023-06-22T12:48:46;7.50;;;5.23;;
73697;SDS011;62004;42.566;23.164;2023-06-22T12:51:12;6.82;;;5.25;;
73697;SDS011;62004;42.566;23.164;2023-06-22T12:53:44;6.80;;;5.97;;
73697;SDS011;62004;42.566;23.164;2023-06-22T12:56:10;6.63;;;5.63;;
73697;SDS011;62004;42.566;23.164;2023-06-22T12:58:35;6.60;;;5.88;;
73697;SDS011;62004;42.566;23.164;2023-06-22T13:01:01;8.57;;;6.60;;
73697;SDS011;62004;42.566;23.164;2023-06-22T13:03:26;8.27;;;6.20;;
73697;SDS011;62004;42.566;23.164;2023-06-22T13:05:52;9.23;;;6.95;;
73697;SDS011;62004;42.566;23.164;2023-06-22T13:08:18;8.65;;;6.72;;
73697;SDS011;62004;42.566;23.164;2023-06-22T13:10:43;8.07;;;5.67;;
73697;SDS011;62004;42.566;23.164;2023-06-22T13:13:08;5.30;;;4.57;;
73697;SDS011;62004;42.566;23.164;2023-06-22T13:15:33;4.70;;;4.30;;
73697;SDS011;62004;42.566;23.164;2023-06-22T13:17:58;6.37;;;4.40;;
73697;SDS011;62004;42.566;23.164;2023-06-22T13:20:24;6.40;;;4.03;;
73697;SDS011;62004;42.566;23.164;2023-06-22T13:22:49;4.83;;;3.53;;
73697;SDS011;62004;42.566;23.164;2023-06-22T13:25:14;7.63;;;4.53;;
73697;SDS011;62004;42.566;23.164;2023-06-22T13:27:44;7.32;;;4.13;;
73697;SDS011;62004;42.566;23.164;2023-06-22T13:30:09;5.15;;;4.50;;
73697;SDS011;62004;42.566;23.164;2023-06-22T13:32:34;4.97;;;4.07;;
73697;SDS011;62004;42.566;23.164;2023-06-22T13:35:00;5.53;;;3.72;;
73697;SDS011;62004;42.566;23.164;2023-06-22T13:37:25;6.13;;;3.83;;
73697;SDS011;62004;42.566;23.164;2023-06-22T13:39:50;5.95;;;4.25;;
73697;SDS011;62004;42.566;23.164;2023-06-22T13:42:16;4.63;;;4.22;;
73697;SDS011;62004;42.566;23.164;2023-06-22T13:44:41;5.35;;;3.92;;
73697;SDS011;62004;42.566;23.164;2023-06-22T13:47:07;4.53;;;4.13;;
73697;SDS011;62004;42.566;23.164;2023-06-22T13:49:32;5.97;;;4.53;;
73697;SDS011;62004;42.566;23.164;2023-06-22T13:51:58;7.03;;;4.80;;
73697;SDS011;62004;42.566;23.164;2023-06-22T13:54:23;6.97;;;4.60;;
73697;SDS011;62004;42.566;23.164;2023-06-22T13:56:48;5.57;;;4.97;;
73697;SDS011;62004;42.566;23.164;2023-06-22T13:59:14;7.93;;;4.60;;
73697;SDS011;62004;42.566;23.164;2023-06-22T14:01:39;6.50;;;5.00;;
73697;SDS011;62004;42.566;23.164;2023-06-22T14:04:05;6.72;;;5.90;;
73697;SDS011;62004;42.566;23.164;2023-06-22T14:06:30;6.68;;;6.00;;
73697;SDS011;62004;42.566;23.164;2023-06-22T14:08:55;7.60;;;6.30;;
73697;SDS011;62004;42.566;23.164;2023-06-22T14:11:21;6.78;;;6.07;;
73697;SDS011;62004;42.566;23.164;2023-06-22T14:13:46;7.13;;;6.43;;
73697;SDS011;62004;42.566;23.164;2023-06-22T14:16:11;7.17;;;6.17;;
73697;SDS011;62004;42.566;23.164;2023-06-22T14:18:36;7.93;;;6.20;;
73697;SDS011;62004;42.566;23.164;2023-06-22T14:21:02;6.80;;;6.07;;
73697;SDS011;62004;42.566;23.164;2023-06-22T14:23:27;7.37;;;5.80;;
73697;SDS011;62004;42.566;23.164;2023-06-22T14:25:52;7.07;;;5.73;;